sensor_id;sensor_type;location;lat;lon;timestamp;pressure;altitude;pressure_sealevel;temperature;humidity
20696;BME280;10507;52.754;13.040;2023-03-14T00:00:31;98373.25;;;11.17;100.00
20696;BME280;10507;52.754;13.040;2023-03-14T00:02:59;98383.34;;;11.14;100.00
20696;BME280;10507;52.754;13.040;2023-03-14T00:05:30;98393.47;;;11.10;100.00
20696;BME280;10507;52.754;13.040;2023-03-14T00:07:59;98398.94;;;11.09;100.00
20696;BME280;10507;52.754;13.040;2023-03-14T00:10:27;98391.22;;;11.06;100.00
20696;BME280;10507;52.754;13.040;2023-03-14T00:12:55;98400.47;;;11.01;100.00
20696;BME280;10507;52.754;13.040;2023-03-14T00:15:23;98421.69;;;11.03;100.00
20696;BME280;10507;52.754;13.040;2023-03-14T00:17:50;98413.66;;;11.03;100.00
20696;BME280;10507;52.754;13.040;2023-03-14T00:20:18;98395.38;;;10.98;100.00
20696;BME280;10507;52.754;13.040;2023-03-14T00:22:48;98395.66;;;10.95;100.00
20696;BME280;10507;52.754;13.040;2023-03-14T00:25:17;98380.19;;;10.89;100.00
20696;BME280;10507;52.754;13.040;2023-03-14T00:27:45;98402.41;;;10.90;100.00
20696;BME280;10507;52.754;13.040;2023-03-14T00:30:13;98381.81;;;10.80;100.00
20696;BME280;10507;52.754;13.040;2023-03-14T00:32:49;98392.78;;;10.77;100.00
20696;BME280;10507;52.754;13.040;2023-03-14T00:35:36;98383.09;;;10.76;100.00
20696;BME280;10507;52.754;13.040;2023-03-14T00:38:05;98378.72;;;10.75;100.00
20696;BME280;10507;52.754;13.040;2023-03-14T00:40:38;98382.38;;;10.74;100.00
20696;BME280;10507;52.754;13.040;2023-03-14T00:43:10;98374.63;;;10.71;100.00
20696;BME280;10507;52.754;13.040;2023-03-14T00:45:52;98379.44;;;10.77;100.00
20696;BME280;10507;52.754;13.040;2023-03-14T00:48:37;98377.47;;;10.79;100.00
20696;BME280;10507;52.754;13.040;2023-03-14T00:51:21;98345.03;;;10.74;100.00
20696;BME280;10507;52.754;13.040;2023-03-14T00:53:51;98330.56;;;10.77;100.00
20696;BME280;10507;52.754;13.040;2023-03-14T00:56:37;98293.44;;;10.74;100.00
20696;BME280;10507;52.754;13.040;2023-03-14T00:59:05;98289.09;;;10.73;100.00
20696;BME280;10507;52.754;13.040;2023-03-14T01:01:33;98261.00;;;10.69;100.00
20696;BME280;10507;52.754;13.040;2023-03-14T01:04:01;98246.09;;;10.66;100.00
20696;BME280;10507;52.754;13.040;2023-03-14T01:06:30;98255.78;;;10.67;100.00
20696;BME280;10507;52.754;13.040;2023-03-14T01:09:00;98256.50;;;10.69;100.00
20696;BME280;10507;52.754;13.040;2023-03-14T01:11:31;98245.69;;;10.71;100.00
20696;BME280;10507;52.754;13.040;2023-03-14T01:14:01;98237.09;;;10.67;100.00
20696;BME280;10507;52.754;13.040;2023-03-14T01:16:32;98253.13;;;10.67;100.00
20696;BME280;10507;52.754;13.040;2023-03-14T01:19:01;98240.34;;;10.61;100.00
20696;BME280;10507;52.754;13.040;2023-03-14T01:21:34;98226.53;;;10.56;100.00
20696;BME280;10507;52.754;13.040;2023-03-14T01:24:04;98267.03;;;10.61;100.00
20696;BME280;10507;52.754;13.040;2023-03-14T01:26:35;98292.59;;;10.64;100.00
20696;BME280;10507;52.754;13.040;2023-03-14T01:29:07;98295.38;;;10.62;100.00
20696;BME280;10507;52.754;13.040;2023-03-14T01:31:38;98301.31;;;10.66;100.00
20696;BME280;10507;52.754;13.040;2023-03-14T01:34:07;98292.59;;;10.73;100.00
20696;BME280;10507;52.754;13.040;2023-03-14T01:36:35;98290.22;;;10.70;100.00
20696;BME280;10507;52.754;13.040;2023-03-14T01:39:03;98286.72;;;10.70;100.00
20696;BME280;10507;52.754;13.040;2023-03-14T01:41:32;98285.13;;;10.67;100.00
20696;BME280;10507;52.754;13.040;2023-03-14T01:44:01;98272.78;;;10.66;100.00
20696;BME280;10507;52.754;13.040;2023-03-14T01:46:34;98267.44;;;10.66;100.00
20696;BME280;10507;52.754;13.040;2023-03-14T01:49:15;98277.53;;;10.63;100.00
20696;BME280;10507;52.754;13.040;2023-03-14T01:55:33;98262.94;;;10.57;100.00
20696;BME280;10507;52.754;13.040;2023-03-14T01:58:04;98250.00;;;10.52;100.00
20696;BME280;10507;52.754;13.040;2023-03-14T02:00:33;98255.06;;;10.55;100.00
20696;BME280;10507;52.754;13.040;2023-03-14T02:03:07;98252.25;;;10.57;100.00
20696;BME280;10507;52.754;13.040;2023-03-14T02:05:38;98254.09;;;10.56;100.00
20696;BME280;10507;52.754;13.040;2023-03-14T02:08:10;98256.75;;;10.56;100.00
20696;BME280;10507;52.754;13.040;2023-03-14T02:10:41;98261.41;;;10.64;100.00
20696;BME280;10507;52.754;13.040;2023-03-14T02:13:11;98242.84;;;10.63;100.00
20696;BME280;10507;52.754;13.040;2023-03-14T02:15:42;98231.50;;;10.60;100.00
20696;BME280;10507;52.754;13.040;2023-03-14T02:18:12;98241.06;;;10.63;100.00
20696;BME280;10507;52.754;13.040;2023-03-14T02:20:46;98209.84;;;10.54;100.00
20696;BME280;10507;52.754;13.040;2023-03-14T02:23:24;98205.34;;;10.54;100.00
20696;BME280;10507;52.754;13.040;2023-03-14T02:26:06;98203.81;;;10.52;100.00
20696;BME280;10507;52.754;13.040;2023-03-14T02:28:37;98217.16;;;10.52;100.00
20696;BME280;10507;52.754;13.040;2023-03-14T02:31:05;98204.78;;;10.51;100.00
20696;BME280;10507;52.754;13.040;2023-03-14T02:33:35;98200.56;;;10.48;100.00
20696;BME280;10507;52.754;13.040;2023-03-14T02:36:08;98198.72;;;10.49;100.00
20696;BME280;10507;52.754;13.040;2023-03-14T02:38:43;98187.50;;;10.45;100.00
20696;BME280;10507;52.754;13.040;2023-03-14T02:41:13;98203.09;;;10.50;100.00
20696;BME280;10507;52.754;13.040;2023-03-14T02:43:44;98176.97;;;10.44;100.00
20696;BME280;10507;52.754;13.040;2023-03-14T02:46:14;98181.59;;;10.42;100.00
20696;BME280;10507;52.754;13.040;2023-03-14T02:48:47;98184.53;;;10.38;100.00
20696;BME280;10507;52.754;13.040;2023-03-14T02:51:20;98170.91;;;10.32;100.00
20696;BME280;10507;52.754;13.040;2023-03-14T02:54:03;98173.69;;;10.30;100.00
20696;BME280;10507;52.754;13.040;2023-03-14T02:56:33;98204.44;;;10.34;100.00
20696;BME280;10507;52.754;13.040;2023-03-14T02:59:04;98205.88;;;10.38;100.00
20696;BME280;10507;52.754;13.040;2023-03-14T03:01:32;98193.50;;;10.37;100.00
20696;BME280;10507;52.754;13.040;2023-03-14T03:04:06;98187.63;;;10.34;100.00
20696;BME280;10507;52.754;13.040;2023-03-14T03:06:34;98191.97;;;10.35;100.00
20696;BME280;10507;52.754;13.040;2023-03-14T03:09:02;98175.53;;;10.30;100.00
20696;BME280;10507;52.754;13.040;2023-03-14T03:11:30;98180.25;;;10.26;100.00
20696;BME280;10507;52.754;13.040;2023-03-14T03:13:58;98189.94;;;10.27;100.00
20696;BME280;10507;52.754;13.040;2023-03-14T03:16:30;98186.41;;;10.27;100.00
20696;BME280;10507;52.754;13.040;2023-03-14T03:22:46;98188.53;;;10.23;100.00
20696;BME280;10507;52.754;13.040;2023-03-14T03:25:16;98208.03;;;10.24;100.00
20696;BME280;10507;52.754;13.040;2023-03-14T03:27:46;98219.53;;;10.24;100.00
20696;BME280;10507;52.754;13.040;2023-03-14T03:30:47;98215.91;;;10.25;100.00
20696;BME280;10507;52.754;13.040;2023-03-14T03:33:25;98214.78;;;10.28;100.00
20696;BME280;10507;52.754;13.040;2023-03-14T03:36:15;98189.25;;;10.25;100.00
20696;BME280;10507;52.754;13.040;2023-03-14T03:39:04;98181.38;;;10.24;100.00
20696;BME280;10507;52.754;13.040;2023-03-14T03:41:33;98158.78;;;10.18;100.00
20696;BME280;10507;52.754;13.040;2023-03-14T03:48:12;98131.66;;;10.13;100.00
20696;BME280;10507;52.754;13.040;2023-03-14T03:51:05;98129.69;;;10.15;100.00
20696;BME280;10507;52.754;13.040;2023-03-14T03:53:47;98126.91;;;10.16;100.00
20696;BME280;10507;52.754;13.040;2023-03-14T03:56:18;98125.50;;;10.22;100.00
20696;BME280;10507;52.754;13.040;2023-03-14T03:58:49;98103.91;;;10.25;100.00
20696;BME280;10507;52.754;13.040;2023-03-14T04:01:40;98109.22;;;10.25;100.00
20696;BME280;10507;52.754;13.040;2023-03-14T04:04:48;98089.03;;;10.23;100.00
20696;BME280;10507;52.754;13.040;2023-03-14T04:07:44;98073.03;;;10.23;100.00
20696;BME280;10507;52.754;13.040;2023-03-14T04:10:15;98087.91;;;10.25;100.00
20696;BME280;10507;52.754;13.040;2023-03-14T04:13:32;98061.50;;;10.22;100.00
20696;BME280;10507;52.754;13.040;2023-03-14T04:16:31;98050.69;;;10.24;100.00
20696;BME280;10507;52.754;13.040;2023-03-14T04:19:22;98032.03;;;10.24;100.00
20696;BME280;10507;52.754;13.040;2023-03-14T04:21:54;98040.88;;;10.24;100.00
20696;BME280;10507;52.754;13.040;2023-03-14T04:24:25;98009.28;;;10.19;100.00
20696;BME280;10507;52.754;13.040;2023-03-14T04:26:53;97983.63;;;10.18;100.00
20696;BME280;10507;52.754;13.040;2023-03-14T04:29:22;97976.47;;;10.19;100.00
20696;BME280;10507;52.754;13.040;2023-03-14T04:31:50;97981.50;;;10.22;100.00
20696;BME280;10507;52.754;13.040;2023-03-14T04:34:18;97967.47;;;10.20;100.00
20696;BME280;10507;52.754;13.040;2023-03-14T04:36:46;97953.16;;;10.21;100.00
20696;BME280;10507;52.754;13.040;2023-03-14T04:39:14;97930.44;;;10.17;100.00
20696;BME280;10507;52.754;13.040;2023-03-14T04:42:14;97927.63;;;10.18;100.00
20696;BME280;10507;52.754;13.040;2023-03-14T04:44:57;97910.78;;;10.18;100.00
20696;BME280;10507;52.754;13.040;2023-03-14T04:47:27;97901.50;;;10.22;100.00
20696;BME280;10507;52.754;13.040;2023-03-14T04:50:19;97874.31;;;10.18;100.00
20696;BME280;10507;52.754;13.040;2023-03-14T04:52:47;97866.31;;;10.18;100.00
20696;BME280;10507;52.754;13.040;2023-03-14T04:55:16;97858.88;;;10.12;100.00
20696;BME280;10507;52.754;13.040;2023-03-14T04:57:45;97886.38;;;10.13;100.00
20696;BME280;10507;52.754;13.040;2023-03-14T05:00:14;97882.44;;;10.17;100.00
20696;BME280;10507;52.754;13.040;2023-03-14T05:02:45;97874.88;;;10.12;100.00
20696;BME280;10507;52.754;13.040;2023-03-14T05:05:13;97881.03;;;10.13;100.00
20696;BME280;10507;52.754;13.040;2023-03-14T05:07:41;97871.38;;;10.12;100.00
20696;BME280;10507;52.754;13.040;2023-03-14T05:10:10;97887.75;;;10.17;100.00
20696;BME280;10507;52.754;13.040;2023-03-14T05:12:54;97879.06;;;10.15;100.00
20696;BME280;10507;52.754;13.040;2023-03-14T05:15:23;97868.13;;;10.18;100.00
20696;BME280;10507;52.754;13.040;2023-03-14T05:17:51;97851.00;;;10.11;100.00
20696;BME280;10507;52.754;13.040;2023-03-14T05:20:21;97852.41;;;10.15;100.00
20696;BME280;10507;52.754;13.040;2023-03-14T05:22:52;97854.38;;;10.13;100.00
20696;BME280;10507;52.754;13.040;2023-03-14T05:25:20;97856.34;;;10.11;100.00
20696;BME280;10507;52.754;13.040;2023-03-14T05:27:49;97882.72;;;10.14;100.00
20696;BME280;10507;52.754;13.040;2023-03-14T05:30:19;97876.28;;;10.16;100.00
20696;BME280;10507;52.754;13.040;2023-03-14T05:32:48;97850.03;;;10.12;100.00
20696;BME280;10507;52.754;13.040;2023-03-14T05:35:16;97833.75;;;10.15;100.00
20696;BME280;10507;52.754;13.040;2023-03-14T05:37:58;97828.69;;;10.22;99.93
20696;BME280;10507;52.754;13.040;2023-03-14T05:40:28;97815.47;;;10.20;100.00
20696;BME280;10507;52.754;13.040;2023-03-14T05:42:58;97805.50;;;10.22;100.00
20696;BME280;10507;52.754;13.040;2023-03-14T05:45:31;97796.41;;;10.25;100.00
20696;BME280;10507;52.754;13.040;2023-03-14T05:48:13;97794.72;;;10.24;99.75
20696;BME280;10507;52.754;13.040;2023-03-14T05:50:41;97793.19;;;10.21;100.00
20696;BME280;10507;52.754;13.040;2023-03-14T05:53:09;97800.47;;;10.19;99.79
20696;BME280;10507;52.754;13.040;2023-03-14T05:55:36;97800.19;;;10.22;99.75
20696;BME280;10507;52.754;13.040;2023-03-14T05:58:07;97800.03;;;10.24;99.79
20696;BME280;10507;52.754;13.040;2023-03-14T06:00:36;97787.00;;;10.20;99.52
20696;BME280;10507;52.754;13.040;2023-03-14T06:03:04;97777.06;;;10.23;99.43
20696;BME280;10507;52.754;13.040;2023-03-14T06:05:33;97768.03;;;10.24;98.80
20696;BME280;10507;52.754;13.040;2023-03-14T06:08:01;97765.38;;;10.24;99.68
20696;BME280;10507;52.754;13.040;2023-03-14T06:10:29;97762.28;;;10.28;98.79
20696;BME280;10507;52.754;13.040;2023-03-14T06:12:56;97762.16;;;10.30;98.87
20696;BME280;10507;52.754;13.040;2023-03-14T06:15:24;97748.84;;;10.30;98.80
20696;BME280;10507;52.754;13.040;2023-03-14T06:17:55;97730.03;;;10.31;98.37
20696;BME280;10507;52.754;13.040;2023-03-14T06:20:22;97726.94;;;10.36;98.31
20696;BME280;10507;52.754;13.040;2023-03-14T06:22:50;97729.28;;;10.39;97.79
20696;BME280;10507;52.754;13.040;2023-03-14T06:25:18;97716.34;;;10.44;97.43
20696;BME280;10507;52.754;13.040;2023-03-14T06:27:46;97714.59;;;10.53;97.36
20696;BME280;10507;52.754;13.040;2023-03-14T06:30:15;97706.28;;;10.56;97.20
20696;BME280;10507;52.754;13.040;2023-03-14T06:32:43;97718.22;;;10.61;96.60
20696;BME280;10507;52.754;13.040;2023-03-14T06:35:12;97735.03;;;10.72;96.87
20696;BME280;10507;52.754;13.040;2023-03-14T06:37:40;97725.56;;;10.77;96.32
20696;BME280;10507;52.754;13.040;2023-03-14T06:40:09;97707.25;;;10.82;96.01
20696;BME280;10507;52.754;13.040;2023-03-14T06:42:39;97691.66;;;10.88;95.42
20696;BME280;10507;52.754;13.040;2023-03-14T06:45:08;97687.84;;;10.90;95.28
20696;BME280;10507;52.754;13.040;2023-03-14T06:47:36;97690.03;;;10.95;94.59
20696;BME280;10507;52.754;13.040;2023-03-14T06:50:08;97668.09;;;11.01;94.96
20696;BME280;10507;52.754;13.040;2023-03-14T06:52:37;97670.13;;;11.07;94.40
20696;BME280;10507;52.754;13.040;2023-03-14T06:55:08;97668.81;;;11.11;93.63
20696;BME280;10507;52.754;13.040;2023-03-14T06:57:36;97676.09;;;11.19;93.60
20696;BME280;10507;52.754;13.040;2023-03-14T07:00:05;97729.25;;;11.48;93.45
20696;BME280;10507;52.754;13.040;2023-03-14T07:02:33;97716.72;;;11.75;91.70
20696;BME280;10507;52.754;13.040;2023-03-14T07:05:08;97692.06;;;12.07;90.04
20696;BME280;10507;52.754;13.040;2023-03-14T07:07:38;97567.34;;;11.98;89.17
20696;BME280;10507;52.754;13.040;2023-03-14T07:10:06;97521.59;;;11.75;90.11
20696;BME280;10507;52.754;13.040;2023-03-14T07:12:38;97529.28;;;11.61;90.34
20696;BME280;10507;52.754;13.040;2023-03-14T07:15:11;97533.06;;;11.51;91.27
20696;BME280;10507;52.754;13.040;2023-03-14T07:17:45;97537.81;;;11.39;91.77
20696;BME280;10507;52.754;13.040;2023-03-14T07:20:15;97600.47;;;11.44;92.03
20696;BME280;10507;52.754;13.040;2023-03-14T07:22:51;97826.19;;;12.46;90.35
20696;BME280;10507;52.754;13.040;2023-03-14T07:25:26;97760.72;;;13.18;87.00
20696;BME280;10507;52.754;13.040;2023-03-14T07:28:09;97652.06;;;13.40;85.10
20696;BME280;10507;52.754;13.040;2023-03-14T07:30:55;97555.47;;;13.81;83.57
20696;BME280;10507;52.754;13.040;2023-03-14T07:33:33;97501.28;;;13.93;82.14
20696;BME280;10507;52.754;13.040;2023-03-14T07:36:09;97708.31;;;14.53;81.69
20696;BME280;10507;52.754;13.040;2023-03-14T07:38:39;97536.00;;;14.72;79.51
20696;BME280;10507;52.754;13.040;2023-03-14T07:41:09;97573.09;;;15.15;78.32
20696;BME280;10507;52.754;13.040;2023-03-14T07:43:40;97543.66;;;15.22;78.32
20696;BME280;10507;52.754;13.040;2023-03-14T07:46:17;97578.72;;;15.58;77.51
20696;BME280;10507;52.754;13.040;2023-03-14T07:48:48;97663.28;;;15.93;76.97
20696;BME280;10507;52.754;13.040;2023-03-14T07:51:31;97573.84;;;16.21;75.36
20696;BME280;10507;52.754;13.040;2023-03-14T07:54:08;97471.97;;;16.25;75.07
20696;BME280;10507;52.754;13.040;2023-03-14T07:56:39;97407.84;;;15.92;75.58
20696;BME280;10507;52.754;13.040;2023-03-14T07:59:17;97243.09;;;15.47;76.06
20696;BME280;10507;52.754;13.040;2023-03-14T08:01:52;97191.69;;;14.92;77.08
20696;BME280;10507;52.754;13.040;2023-03-14T08:04:26;97230.34;;;14.31;79.59
20696;BME280;10507;52.754;13.040;2023-03-14T08:06:56;97283.44;;;14.21;80.53
20696;BME280;10507;52.754;13.040;2023-03-14T08:09:31;97325.63;;;14.12;80.96
20696;BME280;10507;52.754;13.040;2023-03-14T08:12:04;97396.78;;;14.23;81.54
20696;BME280;10507;52.754;13.040;2023-03-14T08:14:36;97436.84;;;14.25;81.74
20696;BME280;10507;52.754;13.040;2023-03-14T08:17:10;97364.34;;;14.10;82.67
20696;BME280;10507;52.754;13.040;2023-03-14T08:19:42;97314.19;;;13.96;81.83
20696;BME280;10507;52.754;13.040;2023-03-14T08:22:11;97369.84;;;13.93;82.80
20696;BME280;10507;52.754;13.040;2023-03-14T08:24:45;97383.44;;;13.92;82.93
20696;BME280;10507;52.754;13.040;2023-03-14T08:27:22;97455.22;;;14.13;82.39
20696;BME280;10507;52.754;13.040;2023-03-14T08:29:56;97373.25;;;14.10;82.69
20696;BME280;10507;52.754;13.040;2023-03-14T08:32:27;97343.00;;;14.17;81.45
20696;BME280;10507;52.754;13.040;2023-03-14T08:35:05;97321.69;;;14.00;82.36
20696;BME280;10507;52.754;13.040;2023-03-14T08:37:40;97274.22;;;13.86;82.59
20696;BME280;10507;52.754;13.040;2023-03-14T08:40:14;97340.53;;;13.92;82.33
20696;BME280;10507;52.754;13.040;2023-03-14T08:42:48;97327.19;;;13.84;82.78
20696;BME280;10507;52.754;13.040;2023-03-14T08:45:24;97352.41;;;13.98;81.82
20696;BME280;10507;52.754;13.040;2023-03-14T08:48:25;97207.47;;;13.53;83.06
20696;BME280;10507;52.754;13.040;2023-03-14T08:51:12;97275.19;;;13.47;83.22
20696;BME280;10507;52.754;13.040;2023-03-14T08:53:54;97336.13;;;13.53;83.46
20696;BME280;10507;52.754;13.040;2023-03-14T08:56:26;97300.78;;;13.49;83.50
20696;BME280;10507;52.754;13.040;2023-03-14T08:58:54;97389.16;;;13.66;83.92
20696;BME280;10507;52.754;13.040;2023-03-14T09:01:22;97403.34;;;13.75;84.00
20696;BME280;10507;52.754;13.040;2023-03-14T09:03:51;97309.69;;;13.73;83.50
20696;BME280;10507;52.754;13.040;2023-03-14T09:06:19;97434.06;;;13.95;83.89
20696;BME280;10507;52.754;13.040;2023-03-14T09:08:47;97362.34;;;13.89;83.35
20696;BME280;10507;52.754;13.040;2023-03-14T09:11:16;97412.19;;;14.06;83.61
20696;BME280;10507;52.754;13.040;2023-03-14T09:13:46;97431.97;;;14.28;82.68
20696;BME280;10507;52.754;13.040;2023-03-14T09:16:15;97380.28;;;14.49;81.56
20696;BME280;10507;52.754;13.040;2023-03-14T09:18:43;97300.59;;;14.50;81.09
20696;BME280;10507;52.754;13.040;2023-03-14T09:21:11;97213.03;;;14.49;79.77
20696;BME280;10507;52.754;13.040;2023-03-14T09:23:39;97168.16;;;14.28;80.51
20696;BME280;10507;52.754;13.040;2023-03-14T09:26:07;97160.22;;;14.20;80.56
20696;BME280;10507;52.754;13.040;2023-03-14T09:28:35;97160.47;;;14.10;79.78
20696;BME280;10507;52.754;13.040;2023-03-14T09:31:09;97137.56;;;13.92;80.77
20696;BME280;10507;52.754;13.040;2023-03-14T09:33:38;97142.28;;;13.90;80.48
20696;BME280;10507;52.754;13.040;2023-03-14T09:36:07;97154.66;;;13.77;81.44
20696;BME280;10507;52.754;13.040;2023-03-14T09:38:35;97202.91;;;13.77;82.39
20696;BME280;10507;52.754;13.040;2023-03-14T09:41:12;97263.19;;;13.81;82.79
20696;BME280;10507;52.754;13.040;2023-03-14T09:43:42;97239.34;;;13.86;82.29
20696;BME280;10507;52.754;13.040;2023-03-14T09:46:14;97185.72;;;13.86;81.22
20696;BME280;10507;52.754;13.040;2023-03-14T09:48:43;97175.00;;;13.86;81.29
20696;BME280;10507;52.754;13.040;2023-03-14T09:51:14;97129.59;;;13.84;80.48
20696;BME280;10507;52.754;13.040;2023-03-14T09:53:45;97091.31;;;13.90;79.64
20696;BME280;10507;52.754;13.040;2023-03-14T09:56:16;97098.16;;;13.93;79.83
20696;BME280;10507;52.754;13.040;2023-03-14T09:58:50;97156.59;;;13.98;80.20
20696;BME280;10507;52.754;13.040;2023-03-14T10:01:22;97193.22;;;13.90;81.26
20696;BME280;10507;52.754;13.040;2023-03-14T10:03:55;97140.88;;;13.80;81.27
20696;BME280;10507;52.754;13.040;2023-03-14T10:06:26;97219.34;;;13.73;82.63
20696;BME280;10507;52.754;13.040;2023-03-14T10:08:57;97174.94;;;13.56;82.58
20696;BME280;10507;52.754;13.040;2023-03-14T10:11:26;97170.50;;;13.48;82.66
20696;BME280;10507;52.754;13.040;2023-03-14T10:14:06;97150.31;;;13.38;82.34
20696;BME280;10507;52.754;13.040;2023-03-14T10:16:37;97210.56;;;13.42;83.10
20696;BME280;10507;52.754;13.040;2023-03-14T10:19:10;97214.28;;;13.41;82.80
20696;BME280;10507;52.754;13.040;2023-03-14T10:21:40;97203.03;;;13.45;82.44
20696;BME280;10507;52.754;13.040;2023-03-14T10:24:15;97196.63;;;13.46;82.47
20696;BME280;10507;52.754;13.040;2023-03-14T10:26:48;97160.47;;;13.42;81.80
20696;BME280;10507;52.754;13.040;2023-03-14T10:29:17;97182.13;;;13.41;82.37
20696;BME280;10507;52.754;13.040;2023-03-14T10:31:51;97171.75;;;13.38;82.26
20696;BME280;10507;52.754;13.040;2023-03-14T10:34:25;97251.88;;;13.47;82.69
20696;BME280;10507;52.754;13.040;2023-03-14T10:36:55;97186.63;;;13.40;82.18
20696;BME280;10507;52.754;13.040;2023-03-14T10:39:29;97169.00;;;13.46;82.03
20696;BME280;10507;52.754;13.040;2023-03-14T10:42:03;97190.06;;;13.49;82.09
20696;BME280;10507;52.754;13.040;2023-03-14T10:44:32;97140.06;;;13.41;81.96
20696;BME280;10507;52.754;13.040;2023-03-14T10:47:03;97164.97;;;13.50;81.89
20696;BME280;10507;52.754;13.040;2023-03-14T10:49:34;97172.25;;;13.56;81.56
20696;BME280;10507;52.754;13.040;2023-03-14T10:52:14;97162.94;;;13.52;81.67
20696;BME280;10507;52.754;13.040;2023-03-14T10:54:46;97142.31;;;13.52;81.24
20696;BME280;10507;52.754;13.040;2023-03-14T10:57:14;97181.97;;;13.57;82.08
20696;BME280;10507;52.754;13.040;2023-03-14T10:59:42;97160.81;;;13.62;81.00
20696;BME280;10507;52.754;13.040;2023-03-14T11:02:28;97112.94;;;13.59;80.36
20696;BME280;10507;52.754;13.040;2023-03-14T11:05:04;97119.66;;;13.55;80.71
20696;BME280;10507;52.754;13.040;2023-03-14T11:07:39;97083.69;;;13.49;80.11
20696;BME280;10507;52.754;13.040;2023-03-14T11:10:19;97126.34;;;13.59;80.38
20696;BME280;10507;52.754;13.040;2023-03-14T11:12:57;97108.03;;;13.48;81.35
20696;BME280;10507;52.754;13.040;2023-03-14T11:15:35;97133.88;;;13.41;81.54
20696;BME280;10507;52.754;13.040;2023-03-14T11:18:29;97129.34;;;13.41;81.11
20696;BME280;10507;52.754;13.040;2023-03-14T11:21:08;97201.75;;;13.33;82.19
20696;BME280;10507;52.754;13.040;2023-03-14T11:23:43;97247.44;;;13.40;82.31
20696;BME280;10507;52.754;13.040;2023-03-14T11:26:20;97244.75;;;13.40;82.46
20696;BME280;10507;52.754;13.040;2023-03-14T11:28:57;97305.69;;;13.46;82.85
20696;BME280;10507;52.754;13.040;2023-03-14T11:31:26;97277.53;;;13.50;83.17
20696;BME280;10507;52.754;13.040;2023-03-14T11:34:01;97214.19;;;13.49;82.21
20696;BME280;10507;52.754;13.040;2023-03-14T11:36:37;97206.75;;;13.59;81.20
20696;BME280;10507;52.754;13.040;2023-03-14T11:39:11;97142.03;;;13.62;80.95
20696;BME280;10507;52.754;13.040;2023-03-14T11:41:41;97152.22;;;13.67;80.75
20696;BME280;10507;52.754;13.040;2023-03-14T11:44:17;97134.38;;;13.74;80.46
20696;BME280;10507;52.754;13.040;2023-03-14T11:46:48;97153.56;;;13.86;80.37
20696;BME280;10507;52.754;13.040;2023-03-14T11:49:30;97133.75;;;13.87;80.02
20696;BME280;10507;52.754;13.040;2023-03-14T11:52:03;97141.41;;;13.90;80.53
20696;BME280;10507;52.754;13.040;2023-03-14T11:54:39;97128.00;;;13.90;80.29
20696;BME280;10507;52.754;13.040;2023-03-14T11:57:11;97156.50;;;13.91;80.86
20696;BME280;10507;52.754;13.040;2023-03-14T11:59:47;97122.09;;;13.80;80.97
20696;BME280;10507;52.754;13.040;2023-03-14T12:02:22;97229.63;;;13.85;81.92
20696;BME280;10507;52.754;13.040;2023-03-14T12:05:20;97279.97;;;13.98;82.51
20696;BME280;10507;52.754;13.040;2023-03-14T12:10:50;97297.19;;;14.03;82.92
20696;BME280;10507;52.754;13.040;2023-03-14T12:13:19;97303.31;;;14.12;82.71
20696;BME280;10507;52.754;13.040;2023-03-14T12:15:49;97293.06;;;14.16;82.50
20696;BME280;10507;52.754;13.040;2023-03-14T12:18:26;97230.66;;;13.99;82.82
20696;BME280;10507;52.754;13.040;2023-03-14T12:20:58;97251.28;;;13.98;83.07
20696;BME280;10507;52.754;13.040;2023-03-14T12:23:28;97215.13;;;13.79;83.27
20696;BME280;10507;52.754;13.040;2023-03-14T12:26:16;97293.00;;;13.86;83.93
20696;BME280;10507;52.754;13.040;2023-03-14T12:28:49;97320.16;;;14.06;83.30
20696;BME280;10507;52.754;13.040;2023-03-14T12:31:38;97341.63;;;14.21;83.34
20696;BME280;10507;52.754;13.040;2023-03-14T12:34:30;97258.34;;;14.14;82.52
20696;BME280;10507;52.754;13.040;2023-03-14T12:37:14;97169.16;;;14.12;81.68
20696;BME280;10507;52.754;13.040;2023-03-14T12:39:54;97146.25;;;13.95;81.78
20696;BME280;10507;52.754;13.040;2023-03-14T12:42:38;97320.72;;;14.16;83.23
20696;BME280;10507;52.754;13.040;2023-03-14T12:45:22;97262.72;;;14.30;82.23
20696;BME280;10507;52.754;13.040;2023-03-14T12:48:04;97207.22;;;14.30;81.79
20696;BME280;10507;52.754;13.040;2023-03-14T12:50:41;97221.56;;;14.38;81.66
20696;BME280;10507;52.754;13.040;2023-03-14T12:53:53;97295.16;;;14.58;81.63
20696;BME280;10507;52.754;13.040;2023-03-14T12:56:45;97185.91;;;14.44;81.55
20696;BME280;10507;52.754;13.040;2023-03-14T12:59:32;97237.97;;;14.58;81.51
20696;BME280;10507;52.754;13.040;2023-03-14T13:02:02;97219.69;;;14.53;81.86
20696;BME280;10507;52.754;13.040;2023-03-14T13:04:33;97223.50;;;14.59;81.74
20696;BME280;10507;52.754;13.040;2023-03-14T13:07:11;97096.88;;;14.40;80.96
20696;BME280;10507;52.754;13.040;2023-03-14T13:10:00;97141.22;;;14.36;81.60
20696;BME280;10507;52.754;13.040;2023-03-14T13:12:36;97135.59;;;14.31;81.63
20696;BME280;10507;52.754;13.040;2023-03-14T13:15:17;97135.69;;;14.23;82.15
20696;BME280;10507;52.754;13.040;2023-03-14T13:17:46;97183.31;;;14.21;82.36
20696;BME280;10507;52.754;13.040;2023-03-14T13:20:18;97158.81;;;14.24;82.23
20696;BME280;10507;52.754;13.040;2023-03-14T13:22:49;97185.94;;;14.29;82.13
20696;BME280;10507;52.754;13.040;2023-03-14T13:25:18;97150.13;;;14.22;82.21
20696;BME280;10507;52.754;13.040;2023-03-14T13:27:48;97124.13;;;14.07;82.64
20696;BME280;10507;52.754;13.040;2023-03-14T13:30:22;97207.38;;;14.14;83.05
20696;BME280;10507;52.754;13.040;2023-03-14T13:32:52;97266.31;;;14.37;82.98